sensor_id;sensor_type;location;lat;lon;timestamp;P1;durP1;ratioP1;P2;durP2;ratioP2
12363;SDS011;6246;50.826;4.712;2023-05-16T00:00:05;19.70;;;8.40;;
12363;SDS011;6246;50.826;4.712;2023-05-16T00:02:37;13.67;;;6.83;;
12363;SDS011;6246;50.826;4.712;2023-05-16T00:05:03;16.07;;;7.77;;
12363;SDS011;6246;50.826;4.712;2023-05-16T00:07:31;14.87;;;7.53;;
12363;SDS011;6246;50.826;4.712;2023-05-16T00:09:58;18.63;;;7.43;;
12363;SDS011;6246;50.826;4.712;2023-05-16T00:12:24;12.73;;;6.53;;
12363;SDS011;6246;50.826;4.712;2023-05-16T00:14:50;12.17;;;7.10;;
12363;SDS011;6246;50.826;4.712;2023-05-16T00:17:17;16.80;;;7.23;;
12363;SDS011;6246;50.826;4.712;2023-05-16T00:19:44;15.67;;;6.63;;
12363;SDS011;6246;50.826;4.712;2023-05-16T00:22:11;11.90;;;6.80;;
12363;SDS011;6246;50.826;4.712;2023-05-16T00:24:37;14.87;;;6.30;;
12363;SDS011;6246;50.826;4.712;2023-05-16T00:27:03;13.50;;;5.83;;
12363;SDS011;6246;50.826;4.712;2023-05-16T00:29:30;13.63;;;6.40;;
12363;SDS011;6246;50.826;4.712;2023-05-16T00:31:56;11.40;;;5.37;;
12363;SDS011;6246;50.826;4.712;2023-05-16T00:34:22;11.27;;;5.17;;
12363;SDS011;6246;50.826;4.712;2023-05-16T00:36:51;11.83;;;5.83;;
12363;SDS011;6246;50.826;4.712;2023-05-16T00:39:17;12.27;;;5.60;;
12363;SDS011;6246;50.826;4.712;2023-05-16T00:41:43;11.30;;;5.60;;
12363;SDS011;6246;50.826;4.712;2023-05-16T00:44:09;13.97;;;5.50;;
12363;SDS011;6246;50.826;4.712;2023-05-16T00:46:35;12.00;;;5.33;;
12363;SDS011;6246;50.826;4.712;2023-05-16T00:49:02;10.07;;;5.27;;
12363;SDS011;6246;50.826;4.712;2023-05-16T00:51:28;11.37;;;5.10;;
12363;SDS011;6246;50.826;4.712;2023-05-16T00:53:54;10.67;;;4.80;;
12363;SDS011;6246;50.826;4.712;2023-05-16T00:56:21;11.77;;;5.17;;
12363;SDS011;6246;50.826;4.712;2023-05-16T00:58:47;9.00;;;4.80;;
12363;SDS011;6246;50.826;4.712;2023-05-16T01:01:14;9.33;;;4.77;;
12363;SDS011;6246;50.826;4.712;2023-05-16T01:03:40;10.80;;;4.87;;
12363;SDS011;6246;50.826;4.712;2023-05-16T01:06:09;10.60;;;4.93;;
12363;SDS011;6246;50.826;4.712;2023-05-16T01:08:36;10.57;;;4.57;;
12363;SDS011;6246;50.826;4.712;2023-05-16T01:11:07;10.63;;;4.53;;
12363;SDS011;6246;50.826;4.712;2023-05-16T01:16:04;10.10;;;4.47;;
12363;SDS011;6246;50.826;4.712;2023-05-16T01:21:19;10.27;;;4.47;;
12363;SDS011;6246;50.826;4.712;2023-05-16T01:23:57;8.33;;;4.20;;
12363;SDS011;6246;50.826;4.712;2023-05-16T01:26:26;6.77;;;3.73;;
12363;SDS011;6246;50.826;4.712;2023-05-16T01:28:52;8.10;;;4.30;;
12363;SDS011;6246;50.826;4.712;2023-05-16T01:31:22;7.97;;;4.17;;
12363;SDS011;6246;50.826;4.712;2023-05-16T01:33:48;7.13;;;3.40;;
12363;SDS011;6246;50.826;4.712;2023-05-16T01:36:23;8.87;;;4.10;;
12363;SDS011;6246;50.826;4.712;2023-05-16T01:41:33;8.53;;;3.93;;
12363;SDS011;6246;50.826;4.712;2023-05-16T01:44:04;6.53;;;3.60;;
12363;SDS011;6246;50.826;4.712;2023-05-16T01:46:33;10.10;;;3.73;;
12363;SDS011;6246;50.826;4.712;2023-05-16T01:51:28;7.60;;;3.27;;
12363;SDS011;6246;50.826;4.712;2023-05-16T01:53:58;7.03;;;3.47;;
12363;SDS011;6246;50.826;4.712;2023-05-16T01:56:28;7.63;;;3.40;;
12363;SDS011;6246;50.826;4.712;2023-05-16T01:58:55;5.33;;;2.97;;
12363;SDS011;6246;50.826;4.712;2023-05-16T02:01:22;5.73;;;3.40;;
12363;SDS011;6246;50.826;4.712;2023-05-16T02:03:48;6.97;;;3.60;;
12363;SDS011;6246;50.826;4.712;2023-05-16T02:06:15;6.70;;;3.10;;
12363;SDS011;6246;50.826;4.712;2023-05-16T02:08:41;5.00;;;3.00;;
12363;SDS011;6246;50.826;4.712;2023-05-16T02:11:07;4.80;;;2.83;;
12363;SDS011;6246;50.826;4.712;2023-05-16T02:13:33;6.80;;;3.33;;
12363;SDS011;6246;50.826;4.712;2023-05-16T02:15:59;8.43;;;3.10;;
12363;SDS011;6246;50.826;4.712;2023-05-16T02:18:25;7.27;;;3.07;;
12363;SDS011;6246;50.826;4.712;2023-05-16T02:20:52;9.40;;;3.07;;
12363;SDS011;6246;50.826;4.712;2023-05-16T02:23:18;7.33;;;3.17;;
12363;SDS011;6246;50.826;4.712;2023-05-16T02:25:44;6.43;;;2.83;;
12363;SDS011;6246;50.826;4.712;2023-05-16T02:28:10;5.97;;;2.77;;
12363;SDS011;6246;50.826;4.712;2023-05-16T02:30:36;4.63;;;2.70;;
12363;SDS011;6246;50.826;4.712;2023-05-16T02:33:02;6.27;;;2.87;;
12363;SDS011;6246;50.826;4.712;2023-05-16T02:35:28;4.57;;;2.43;;
12363;SDS011;6246;50.826;4.712;2023-05-16T02:37:55;6.43;;;2.87;;
12363;SDS011;6246;50.826;4.712;2023-05-16T02:40:21;7.00;;;2.77;;
12363;SDS011;6246;50.826;4.712;2023-05-16T02:42:47;6.27;;;2.77;;
12363;SDS011;6246;50.826;4.712;2023-05-16T02:45:13;7.27;;;2.90;;
12363;SDS011;6246;50.826;4.712;2023-05-16T02:47:39;9.23;;;2.60;;
12363;SDS011;6246;50.826;4.712;2023-05-16T02:50:05;8.27;;;2.73;;
12363;SDS011;6246;50.826;4.712;2023-05-16T02:52:31;6.50;;;2.70;;
12363;SDS011;6246;50.826;4.712;2023-05-16T02:54:57;6.53;;;2.63;;
12363;SDS011;6246;50.826;4.712;2023-05-16T02:57:23;3.67;;;2.40;;
12363;SDS011;6246;50.826;4.712;2023-05-16T02:59:49;3.97;;;2.53;;
12363;SDS011;6246;50.826;4.712;2023-05-16T03:02:15;5.37;;;2.57;;
12363;SDS011;6246;50.826;4.712;2023-05-16T03:04:41;5.70;;;2.80;;
12363;SDS011;6246;50.826;4.712;2023-05-16T03:07:07;6.33;;;2.77;;
12363;SDS011;6246;50.826;4.712;2023-05-16T03:09:33;6.40;;;2.73;;
12363;SDS011;6246;50.826;4.712;2023-05-16T03:11:59;5.93;;;2.60;;
12363;SDS011;6246;50.826;4.712;2023-05-16T03:14:25;5.50;;;2.20;;
12363;SDS011;6246;50.826;4.712;2023-05-16T03:16:51;6.50;;;2.50;;
12363;SDS011;6246;50.826;4.712;2023-05-16T03:19:17;5.00;;;2.20;;
12363;SDS011;6246;50.826;4.712;2023-05-16T03:21:43;3.63;;;2.03;;
12363;SDS011;6246;50.826;4.712;2023-05-16T03:24:10;6.27;;;2.37;;
12363;SDS011;6246;50.826;4.712;2023-05-16T03:26:36;5.27;;;2.57;;
12363;SDS011;6246;50.826;4.712;2023-05-16T03:29:02;7.87;;;2.83;;
12363;SDS011;6246;50.826;4.712;2023-05-16T03:31:28;5.50;;;2.40;;
12363;SDS011;6246;50.826;4.712;2023-05-16T03:33:55;5.47;;;2.33;;
12363;SDS011;6246;50.826;4.712;2023-05-16T03:36:21;6.83;;;2.30;;
12363;SDS011;6246;50.826;4.712;2023-05-16T03:38:48;3.97;;;2.10;;
12363;SDS011;6246;50.826;4.712;2023-05-16T03:41:14;2.70;;;1.70;;
12363;SDS011;6246;50.826;4.712;2023-05-16T03:43:41;5.27;;;2.10;;
12363;SDS011;6246;50.826;4.712;2023-05-16T03:46:07;4.33;;;2.30;;
12363;SDS011;6246;50.826;4.712;2023-05-16T03:48:33;5.80;;;2.33;;
12363;SDS011;6246;50.826;4.712;2023-05-16T03:50:59;5.97;;;2.43;;
12363;SDS011;6246;50.826;4.712;2023-05-16T03:53:25;6.83;;;2.47;;
12363;SDS011;6246;50.826;4.712;2023-05-16T03:55:51;5.10;;;1.90;;
12363;SDS011;6246;50.826;4.712;2023-05-16T03:58:17;5.60;;;2.43;;
12363;SDS011;6246;50.826;4.712;2023-05-16T04:00:43;4.60;;;2.00;;
12363;SDS011;6246;50.826;4.712;2023-05-16T04:03:10;7.87;;;1.80;;
12363;SDS011;6246;50.826;4.712;2023-05-16T04:05:36;6.23;;;2.50;;
12363;SDS011;6246;50.826;4.712;2023-05-16T04:08:02;5.83;;;2.33;;
12363;SDS011;6246;50.826;4.712;2023-05-16T04:10:28;5.17;;;2.20;;
12363;SDS011;6246;50.826;4.712;2023-05-16T04:12:54;5.00;;;2.03;;
12363;SDS011;6246;50.826;4.712;2023-05-16T04:15:20;4.57;;;1.93;;
12363;SDS011;6246;50.826;4.712;2023-05-16T04:17:47;4.53;;;2.47;;
12363;SDS011;6246;50.826;4.712;2023-05-16T04:20:13;4.03;;;2.07;;
12363;SDS011;6246;50.826;4.712;2023-05-16T04:22:40;6.13;;;2.33;;
12363;SDS011;6246;50.826;4.712;2023-05-16T04:25:06;4.10;;;2.10;;
12363;SDS011;6246;50.826;4.712;2023-05-16T04:27:33;3.07;;;1.77;;
12363;SDS011;6246;50.826;4.712;2023-05-16T04:29:59;4.23;;;1.93;;
12363;SDS011;6246;50.826;4.712;2023-05-16T04:32:25;7.43;;;1.93;;
12363;SDS011;6246;50.826;4.712;2023-05-16T04:34:52;3.23;;;1.70;;
12363;SDS011;6246;50.826;4.712;2023-05-16T04:37:18;4.73;;;2.13;;
12363;SDS011;6246;50.826;4.712;2023-05-16T04:39:44;5.17;;;2.03;;
12363;SDS011;6246;50.826;4.712;2023-05-16T04:42:11;4.43;;;1.97;;
12363;SDS011;6246;50.826;4.712;2023-05-16T04:44:37;6.00;;;2.00;;
12363;SDS011;6246;50.826;4.712;2023-05-16T04:47:03;5.57;;;2.20;;
12363;SDS011;6246;50.826;4.712;2023-05-16T04:49:29;10.10;;;2.30;;
12363;SDS011;6246;50.826;4.712;2023-05-16T04:51:55;4.83;;;1.93;;
12363;SDS011;6246;50.826;4.712;2023-05-16T04:54:21;4.13;;;1.60;;
12363;SDS011;6246;50.826;4.712;2023-05-16T04:56:47;3.93;;;2.10;;
12363;SDS011;6246;50.826;4.712;2023-05-16T04:59:14;3.33;;;1.67;;
12363;SDS011;6246;50.826;4.712;2023-05-16T05:01:40;3.53;;;2.00;;
12363;SDS011;6246;50.826;4.712;2023-05-16T05:04:06;6.47;;;2.53;;
12363;SDS011;6246;50.826;4.712;2023-05-16T05:06:32;4.90;;;1.97;;
12363;SDS011;6246;50.826;4.712;2023-05-16T05:08:58;4.03;;;1.90;;
12363;SDS011;6246;50.826;4.712;2023-05-16T05:11:24;7.73;;;2.20;;
12363;SDS011;6246;50.826;4.712;2023-05-16T05:13:51;6.53;;;1.73;;
12363;SDS011;6246;50.826;4.712;2023-05-16T05:16:17;5.03;;;1.80;;
12363;SDS011;6246;50.826;4.712;2023-05-16T05:18:43;3.27;;;1.80;;
12363;SDS011;6246;50.826;4.712;2023-05-16T05:21:09;3.70;;;1.83;;
12363;SDS011;6246;50.826;4.712;2023-05-16T05:23:35;4.60;;;1.57;;
12363;SDS011;6246;50.826;4.712;2023-05-16T05:26:01;3.07;;;1.67;;
12363;SDS011;6246;50.826;4.712;2023-05-16T05:28:27;3.97;;;1.77;;
12363;SDS011;6246;50.826;4.712;2023-05-16T05:30:53;4.03;;;2.23;;
12363;SDS011;6246;50.826;4.712;2023-05-16T05:33:22;5.20;;;1.77;;
12363;SDS011;6246;50.826;4.712;2023-05-16T05:35:50;3.33;;;1.83;;
12363;SDS011;6246;50.826;4.712;2023-05-16T05:38:18;3.93;;;1.80;;
12363;SDS011;6246;50.826;4.712;2023-05-16T05:40:44;4.80;;;1.87;;
12363;SDS011;6246;50.826;4.712;2023-05-16T05:43:10;4.57;;;1.87;;
12363;SDS011;6246;50.826;4.712;2023-05-16T05:45:36;2.70;;;1.70;;
12363;SDS011;6246;50.826;4.712;2023-05-16T05:48:02;4.20;;;1.90;;
12363;SDS011;6246;50.826;4.712;2023-05-16T05:50:28;4.27;;;1.57;;
12363;SDS011;6246;50.826;4.712;2023-05-16T05:52:54;3.80;;;1.93;;
12363;SDS011;6246;50.826;4.712;2023-05-16T05:55:20;4.87;;;1.97;;
12363;SDS011;6246;50.826;4.712;2023-05-16T05:57:46;3.00;;;1.90;;
12363;SDS011;6246;50.826;4.712;2023-05-16T06:00:13;4.50;;;1.50;;
12363;SDS011;6246;50.826;4.712;2023-05-16T06:02:39;5.60;;;1.50;;
12363;SDS011;6246;50.826;4.712;2023-05-16T06:05:05;7.37;;;2.30;;
12363;SDS011;6246;50.826;4.712;2023-05-16T06:07:31;3.30;;;1.40;;
12363;SDS011;6246;50.826;4.712;2023-05-16T06:09:57;5.03;;;1.80;;
12363;SDS011;6246;50.826;4.712;2023-05-16T06:12:28;5.07;;;1.77;;
12363;SDS011;6246;50.826;4.712;2023-05-16T06:14:54;5.90;;;2.23;;
12363;SDS011;6246;50.826;4.712;2023-05-16T06:17:20;3.70;;;1.50;;
12363;SDS011;6246;50.826;4.712;2023-05-16T06:19:46;4.33;;;1.67;;
12363;SDS011;6246;50.826;4.712;2023-05-16T06:22:12;2.80;;;1.90;;
12363;SDS011;6246;50.826;4.712;2023-05-16T06:24:38;5.40;;;1.67;;
12363;SDS011;6246;50.826;4.712;2023-05-16T06:27:05;9.97;;;2.33;;
12363;SDS011;6246;50.826;4.712;2023-05-16T06:29:31;4.47;;;1.80;;
12363;SDS011;6246;50.826;4.712;2023-05-16T06:31:57;5.03;;;1.93;;
12363;SDS011;6246;50.826;4.712;2023-05-16T06:34:23;5.10;;;1.90;;
12363;SDS011;6246;50.826;4.712;2023-05-16T06:36:52;5.97;;;2.00;;
12363;SDS011;6246;50.826;4.712;2023-05-16T06:39:18;6.30;;;1.90;;
12363;SDS011;6246;50.826;4.712;2023-05-16T06:41:44;5.60;;;2.17;;
12363;SDS011;6246;50.826;4.712;2023-05-16T06:44:11;3.53;;;1.83;;
12363;SDS011;6246;50.826;4.712;2023-05-16T06:46:37;4.93;;;1.73;;
12363;SDS011;6246;50.826;4.712;2023-05-16T06:49:03;9.43;;;2.30;;
12363;SDS011;6246;50.826;4.712;2023-05-16T06:51:30;3.43;;;1.83;;
12363;SDS011;6246;50.826;4.712;2023-05-16T06:53:56;2.90;;;1.33;;
12363;SDS011;6246;50.826;4.712;2023-05-16T06:56:22;3.37;;;1.73;;
12363;SDS011;6246;50.826;4.712;2023-05-16T06:58:49;2.80;;;1.37;;
12363;SDS011;6246;50.826;4.712;2023-05-16T07:01:15;4.63;;;2.00;;
12363;SDS011;6246;50.826;4.712;2023-05-16T07:03:41;4.73;;;1.87;;
12363;SDS011;6246;50.826;4.712;2023-05-16T07:06:07;4.63;;;1.83;;
12363;SDS011;6246;50.826;4.712;2023-05-16T07:08:33;2.87;;;1.47;;
12363;SDS011;6246;50.826;4.712;2023-05-16T07:11:00;3.20;;;1.63;;
12363;SDS011;6246;50.826;4.712;2023-05-16T07:13:26;4.73;;;2.00;;
12363;SDS011;6246;50.826;4.712;2023-05-16T07:15:52;3.87;;;1.53;;
12363;SDS011;6246;50.826;4.712;2023-05-16T07:18:18;5.27;;;1.70;;
12363;SDS011;6246;50.826;4.712;2023-05-16T07:20:44;1.87;;;1.30;;
12363;SDS011;6246;50.826;4.712;2023-05-16T07:23:11;3.93;;;1.70;;
12363;SDS011;6246;50.826;4.712;2023-05-16T07:25:37;7.90;;;2.00;;
12363;SDS011;6246;50.826;4.712;2023-05-16T07:28:03;4.83;;;2.30;;
12363;SDS011;6246;50.826;4.712;2023-05-16T07:30:29;4.30;;;1.90;;
12363;SDS011;6246;50.826;4.712;2023-05-16T07:32:55;3.43;;;1.73;;
12363;SDS011;6246;50.826;4.712;2023-05-16T07:35:21;4.23;;;1.70;;
12363;SDS011;6246;50.826;4.712;2023-05-16T07:37:47;4.57;;;1.43;;
12363;SDS011;6246;50.826;4.712;2023-05-16T07:40:13;2.80;;;1.70;;
12363;SDS011;6246;50.826;4.712;2023-05-16T07:42:42;3.37;;;1.60;;
12363;SDS011;6246;50.826;4.712;2023-05-16T07:45:08;4.20;;;1.20;;
12363;SDS011;6246;50.826;4.712;2023-05-16T07:47:34;4.20;;;1.83;;
12363;SDS011;6246;50.826;4.712;2023-05-16T07:50:01;4.70;;;1.60;;
12363;SDS011;6246;50.826;4.712;2023-05-16T07:52:27;5.30;;;1.83;;
12363;SDS011;6246;50.826;4.712;2023-05-16T07:54:53;3.33;;;1.40;;
12363;SDS011;6246;50.826;4.712;2023-05-16T07:57:19;3.77;;;1.73;;
12363;SDS011;6246;50.826;4.712;2023-05-16T07:59:45;2.93;;;1.40;;
12363;SDS011;6246;50.826;4.712;2023-05-16T08:02:11;6.17;;;2.10;;
12363;SDS011;6246;50.826;4.712;2023-05-16T08:04:37;4.63;;;1.90;;
12363;SDS011;6246;50.826;4.712;2023-05-16T08:07:03;3.90;;;2.00;;
12363;SDS011;6246;50.826;4.712;2023-05-16T08:09:30;3.27;;;1.33;;
12363;SDS011;6246;50.826;4.712;2023-05-16T08:11:56;3.83;;;1.37;;
12363;SDS011;6246;50.826;4.712;2023-05-16T08:14:22;4.67;;;1.70;;
12363;SDS011;6246;50.826;4.712;2023-05-16T08:16:48;2.70;;;1.27;;
12363;SDS011;6246;50.826;4.712;2023-05-16T08:19:14;6.00;;;1.37;;
12363;SDS011;6246;50.826;4.712;2023-05-16T08:21:40;4.30;;;1.93;;
12363;SDS011;6246;50.826;4.712;2023-05-16T08:24:06;3.30;;;1.40;;
12363;SDS011;6246;50.826;4.712;2023-05-16T08:26:35;8.13;;;1.40;;
12363;SDS011;6246;50.826;4.712;2023-05-16T08:29:01;5.43;;;1.63;;
12363;SDS011;6246;50.826;4.712;2023-05-16T08:31:27;1.97;;;1.27;;
12363;SDS011;6246;50.826;4.712;2023-05-16T08:33:53;4.93;;;1.70;;
12363;SDS011;6246;50.826;4.712;2023-05-16T08:36:19;2.67;;;1.60;;
12363;SDS011;6246;50.826;4.712;2023-05-16T08:38:45;3.60;;;1.37;;
12363;SDS011;6246;50.826;4.712;2023-05-16T08:41:11;4.60;;;1.90;;
12363;SDS011;6246;50.826;4.712;2023-05-16T08:43:37;4.37;;;1.73;;
12363;SDS011;6246;50.826;4.712;2023-05-16T08:46:05;3.17;;;1.50;;
12363;SDS011;6246;50.826;4.712;2023-05-16T08:48:31;1.30;;;1.20;;
12363;SDS011;6246;50.826;4.712;2023-05-16T08:50:58;3.70;;;1.70;;
12363;SDS011;6246;50.826;4.712;2023-05-16T08:53:26;4.97;;;1.83;;
12363;SDS011;6246;50.826;4.712;2023-05-16T08:55:57;4.73;;;1.33;;
12363;SDS011;6246;50.826;4.712;2023-05-16T08:58:24;4.77;;;1.97;;
12363;SDS011;6246;50.826;4.712;2023-05-16T09:00:50;3.47;;;1.50;;
12363;SDS011;6246;50.826;4.712;2023-05-16T09:03:16;4.20;;;1.50;;
12363;SDS011;6246;50.826;4.712;2023-05-16T09:05:44;3.90;;;1.63;;
12363;SDS011;6246;50.826;4.712;2023-05-16T09:08:11;4.00;;;1.60;;
12363;SDS011;6246;50.826;4.712;2023-05-16T09:10:37;4.50;;;1.50;;
12363;SDS011;6246;50.826;4.712;2023-05-16T09:13:03;1.77;;;0.97;;
12363;SDS011;6246;50.826;4.712;2023-05-16T09:15:32;2.00;;;1.50;;
12363;SDS011;6246;50.826;4.712;2023-05-16T09:17:59;3.50;;;1.53;;
12363;SDS011;6246;50.826;4.712;2023-05-16T09:20:26;2.87;;;1.40;;
12363;SDS011;6246;50.826;4.712;2023-05-16T09:22:53;3.87;;;1.60;;
12363;SDS011;6246;50.826;4.712;2023-05-16T09:25:20;2.53;;;1.00;;
12363;SDS011;6246;50.826;4.712;2023-05-16T09:27:47;4.60;;;1.47;;
12363;SDS011;6246;50.826;4.712;2023-05-16T09:30:13;3.40;;;1.10;;
12363;SDS011;6246;50.826;4.712;2023-05-16T09:32:43;7.50;;;1.90;;
12363;SDS011;6246;50.826;4.712;2023-05-16T09:35:10;3.53;;;1.40;;
12363;SDS011;6246;50.826;4.712;2023-05-16T09:37:43;3.30;;;1.47;;
12363;SDS011;6246;50.826;4.712;2023-05-16T09:40:09;3.60;;;1.00;;
12363;SDS011;6246;50.826;4.712;2023-05-16T09:42:35;2.67;;;1.10;;
12363;SDS011;6246;50.826;4.712;2023-05-16T09:45:01;2.97;;;1.40;;
12363;SDS011;6246;50.826;4.712;2023-05-16T09:47:27;10.07;;;2.87;;
12363;SDS011;6246;50.826;4.712;2023-05-16T09:49:53;3.67;;;1.73;;
12363;SDS011;6246;50.826;4.712;2023-05-16T09:52:19;7.57;;;1.90;;
12363;SDS011;6246;50.826;4.712;2023-05-16T09:54:46;7.63;;;2.47;;
12363;SDS011;6246;50.826;4.712;2023-05-16T09:57:18;5.93;;;2.20;;
12363;SDS011;6246;50.826;4.712;2023-05-16T09:59:44;6.27;;;2.20;;
12363;SDS011;6246;50.826;4.712;2023-05-16T10:02:10;3.97;;;1.90;;
12363;SDS011;6246;50.826;4.712;2023-05-16T10:04:37;4.13;;;1.80;;
12363;SDS011;6246;50.826;4.712;2023-05-16T10:07:03;3.63;;;1.90;;
12363;SDS011;6246;50.826;4.712;2023-05-16T10:09:34;4.23;;;1.97;;
12363;SDS011;6246;50.826;4.712;2023-05-16T10:12:03;4.17;;;1.77;;
12363;SDS011;6246;50.826;4.712;2023-05-16T10:14:34;4.40;;;1.90;;
12363;SDS011;6246;50.826;4.712;2023-05-16T10:17:01;5.20;;;2.10;;
12363;SDS011;6246;50.826;4.712;2023-05-16T10:19:28;2.40;;;1.57;;
12363;SDS011;6246;50.826;4.712;2023-05-16T10:21:57;3.70;;;1.70;;
12363;SDS011;6246;50.826;4.712;2023-05-16T10:24:25;3.70;;;1.70;;
12363;SDS011;6246;50.826;4.712;2023-05-16T10:26:53;2.63;;;1.70;;
12363;SDS011;6246;50.826;4.712;2023-05-16T10:29:19;2.83;;;1.33;;
12363;SDS011;6246;50.826;4.712;2023-05-16T10:31:45;5.17;;;1.70;;
12363;SDS011;6246;50.826;4.712;2023-05-16T10:34:12;4.57;;;1.33;;
12363;SDS011;6246;50.826;4.712;2023-05-16T10:36:39;3.50;;;1.40;;
12363;SDS011;6246;50.826;4.712;2023-05-16T10:39:05;4.97;;;1.67;;
12363;SDS011;6246;50.826;4.712;2023-05-16T10:41:32;4.23;;;2.03;;
12363;SDS011;6246;50.826;4.712;2023-05-16T10:43:58;5.40;;;1.60;;
12363;SDS011;6246;50.826;4.712;2023-05-16T10:46:25;4.40;;;1.60;;
12363;SDS011;6246;50.826;4.712;2023-05-16T10:48:53;4.57;;;1.93;;
12363;SDS011;6246;50.826;4.712;2023-05-16T10:53:52;4.30;;;1.27;;
12363;SDS011;6246;50.826;4.712;2023-05-16T10:56:22;5.63;;;2.00;;
12363;SDS011;6246;50.826;4.712;2023-05-16T10:58:48;3.43;;;1.23;;
12363;SDS011;6246;50.826;4.712;2023-05-16T11:01:26;3.07;;;1.30;;
12363;SDS011;6246;50.826;4.712;2023-05-16T11:06:22;2.20;;;1.10;;
12363;SDS011;6246;50.826;4.712;2023-05-16T11:14:04;2.83;;;1.63;;
12363;SDS011;6246;50.826;4.712;2023-05-16T11:16:30;2.83;;;1.10;;
12363;SDS011;6246;50.826;4.712;2023-05-16T11:19:03;2.83;;;1.33;;
12363;SDS011;6246;50.826;4.712;2023-05-16T11:24:27;2.33;;;1.10;;
12363;SDS011;6246;50.826;4.712;2023-05-16T11:26:57;4.00;;;1.43;;
12363;SDS011;6246;50.826;4.712;2023-05-16T11:29:25;2.80;;;1.40;;
12363;SDS011;6246;50.826;4.712;2023-05-16T11:31:52;1.83;;;1.20;;
12363;SDS011;6246;50.826;4.712;2023-05-16T11:34:18;3.57;;;1.23;;
12363;SDS011;6246;50.826;4.712;2023-05-16T11:36:44;3.00;;;1.30;;
12363;SDS011;6246;50.826;4.712;2023-05-16T11:39:12;3.83;;;1.70;;
12363;SDS011;6246;50.826;4.712;2023-05-16T11:41:38;2.87;;;1.40;;
12363;SDS011;6246;50.826;4.712;2023-05-16T11:44:04;2.23;;;1.13;;
12363;SDS011;6246;50.826;4.712;2023-05-16T11:46:32;3.07;;;1.10;;
12363;SDS011;6246;50.826;4.712;2023-05-16T11:48:58;1.83;;;1.13;;
12363;SDS011;6246;50.826;4.712;2023-05-16T11:51:25;2.50;;;1.43;;
12363;SDS011;6246;50.826;4.712;2023-05-16T11:53:51;2.27;;;1.13;;
12363;SDS011;6246;50.826;4.712;2023-05-16T11:56:18;3.20;;;1.40;;
12363;SDS011;6246;50.826;4.712;2023-05-16T11:58:47;2.10;;;1.00;;
12363;SDS011;6246;50.826;4.712;2023-05-16T12:01:14;3.40;;;1.17;;
12363;SDS011;6246;50.826;4.712;2023-05-16T12:03:40;4.27;;;1.60;;
12363;SDS011;6246;50.826;4.712;2023-05-16T12:06:06;1.30;;;1.10;;
12363;SDS011;6246;50.826;4.712;2023-05-16T12:08:33;1.73;;;1.03;;
12363;SDS011;6246;50.826;4.712;2023-05-16T12:10:59;1.27;;;1.10;;
12363;SDS011;6246;50.826;4.712;2023-05-16T12:13:25;1.87;;;1.10;;
12363;SDS011;6246;50.826;4.712;2023-05-16T12:15:52;3.03;;;1.47;;
12363;SDS011;6246;50.826;4.712;2023-05-16T12:18:18;3.63;;;1.23;;
12363;SDS011;6246;50.826;4.712;2023-05-16T12:20:45;2.10;;;1.27;;
12363;SDS011;6246;50.826;4.712;2023-05-16T12:23:12;2.03;;;0.83;;
12363;SDS011;6246;50.826;4.712;2023-05-16T12:25:38;3.70;;;1.30;;
12363;SDS011;6246;50.826;4.712;2023-05-16T12:28:10;2.17;;;1.40;;
12363;SDS011;6246;50.826;4.712;2023-05-16T12:30:38;1.93;;;1.00;;
12363;SDS011;6246;50.826;4.712;2023-05-16T12:33:08;2.77;;;1.30;;
12363;SDS011;6246;50.826;4.712;2023-05-16T12:35:37;2.20;;;1.20;;
12363;SDS011;6246;50.826;4.712;2023-05-16T12:38:03;1.27;;;1.00;;
12363;SDS011;6246;50.826;4.712;2023-05-16T12:40:30;1.73;;;0.87;;
12363;SDS011;6246;50.826;4.712;2023-05-16T12:42:56;3.70;;;1.20;;
12363;SDS011;6246;50.826;4.712;2023-05-16T12:45:22;1.33;;;0.90;;
12363;SDS011;6246;50.826;4.712;2023-05-16T12:47:49;2.43;;;0.90;;
12363;SDS011;6246;50.826;4.712;2023-05-16T12:50:15;3.67;;;1.20;;
12363;SDS011;6246;50.826;4.712;2023-05-16T12:55:19;1.43;;;1.00;;
12363;SDS011;6246;50.826;4.712;2023-05-16T12:57:46;1.30;;;0.97;;
12363;SDS011;6246;50.826;4.712;2023-05-16T13:00:12;2.30;;;1.00;;
12363;SDS011;6246;50.826;4.712;2023-05-16T13:02:40;1.33;;;0.80;;
12363;SDS011;6246;50.826;4.712;2023-05-16T13:05:06;2.47;;;1.10;;
12363;SDS011;6246;50.826;4.712;2023-05-16T13:07:32;1.70;;;1.20;;
12363;SDS011;6246;50.826;4.712;2023-05-16T13:09:59;2.83;;;1.10;;
12363;SDS011;6246;50.826;4.712;2023-05-16T13:12:25;2.30;;;1.27;;
12363;SDS011;6246;50.826;4.712;2023-05-16T13:14:51;2.53;;;1.17;;
12363;SDS011;6246;50.826;4.712;2023-05-16T13:17:17;1.60;;;1.10;;
12363;SDS011;6246;50.826;4.712;2023-05-16T13:19:43;2.40;;;1.30;;
12363;SDS011;6246;50.826;4.712;2023-05-16T13:22:10;3.53;;;1.07;;
12363;SDS011;6246;50.826;4.712;2023-05-16T13:24:36;1.63;;;1.10;;
12363;SDS011;6246;50.826;4.712;2023-05-16T13:27:02;1.97;;;1.07;;
12363;SDS011;6246;50.826;4.712;2023-05-16T13:29:28;1.27;;;0.90;;
12363;SDS011;6246;50.826;4.712;2023-05-16T13:31:54;3.07;;;0.97;;
12363;SDS011;6246;50.826;4.712;2023-05-16T13:34:20;3.47;;;1.10;;
12363;SDS011;6246;50.826;4.712;2023-05-16T13:36:46;2.00;;;0.83;;
12363;SDS011;6246;50.826;4.712;2023-05-16T13:39:13;4.90;;;1.30;;
12363;SDS011;6246;50.826;4.712;2023-05-16T13:41:39;4.30;;;1.37;;
12363;SDS011;6246;50.826;4.712;2023-05-16T13:44:06;2.23;;;0.93;;
12363;SDS011;6246;50.826;4.712;2023-05-16T13:46:32;3.73;;;1.30;;
12363;SDS011;6246;50.826;4.712;2023-05-16T13:48:58;1.57;;;1.07;;
12363;SDS011;6246;50.826;4.712;2023-05-16T13:51:24;2.20;;;1.00;;
12363;SDS011;6246;50.826;4.712;2023-05-16T13:53:50;1.53;;;1.10;;
12363;SDS011;6246;50.826;4.712;2023-05-16T13:56:16;2.43;;;1.40;;
12363;SDS011;6246;50.826;4.712;2023-05-16T13:58:42;2.57;;;1.13;;
12363;SDS011;6246;50.826;4.712;2023-05-16T14:01:08;3.00;;;1.10;;
12363;SDS011;6246;50.826;4.712;2023-05-16T14:03:35;4.00;;;1.20;;
12363;SDS011;6246;50.826;4.712;2023-05-16T14:06:01;2.30;;;1.00;;
12363;SDS011;6246;50.826;4.712;2023-05-16T14:08:28;4.27;;;1.07;;
12363;SDS011;6246;50.826;4.712;2023-05-16T14:10:54;4.50;;;1.40;;
12363;SDS011;6246;50.826;4.712;2023-05-16T14:13:20;4.00;;;0.90;;
12363;SDS011;6246;50.826;4.712;2023-05-16T14:15:46;4.20;;;1.27;;
12363;SDS011;6246;50.826;4.712;2023-05-16T14:18:12;3.13;;;1.40;;
12363;SDS011;6246;50.826;4.712;2023-05-16T14:20:39;4.00;;;1.30;;
12363;SDS011;6246;50.826;4.712;2023-05-16T14:23:05;2.00;;;1.13;;
12363;SDS011;6246;50.826;4.712;2023-05-16T14:25:31;3.77;;;1.03;;
12363;SDS011;6246;50.826;4.712;2023-05-16T14:27:57;2.90;;;0.83;;
12363;SDS011;6246;50.826;4.712;2023-05-16T14:30:23;5.40;;;1.47;;
12363;SDS011;6246;50.826;4.712;2023-05-16T14:32:49;1.70;;;0.93;;
12363;SDS011;6246;50.826;4.712;2023-05-16T14:35:15;5.37;;;1.07;;
12363;SDS011;6246;50.826;4.712;2023-05-16T14:37:41;2.73;;;1.03;;
12363;SDS011;6246;50.826;4.712;2023-05-16T14:40:07;2.23;;;1.13;;
12363;SDS011;6246;50.826;4.712;2023-05-16T14:42:34;1.97;;;1.03;;
12363;SDS011;6246;50.826;4.712;2023-05-16T14:45:00;3.53;;;1.40;;
12363;SDS011;6246;50.826;4.712;2023-05-16T14:47:26;4.10;;;1.20;;
12363;SDS011;6246;50.826;4.712;2023-05-16T14:49:53;2.50;;;1.13;;
12363;SDS011;6246;50.826;4.712;2023-05-16T14:52:20;2.93;;;1.00;;
12363;SDS011;6246;50.826;4.712;2023-05-16T14:54:46;4.93;;;1.80;;
12363;SDS011;6246;50.826;4.712;2023-05-16T14:57:12;3.80;;;1.00;;
12363;SDS011;6246;50.826;4.712;2023-05-16T14:59:38;1.37;;;0.87;;
12363;SDS011;6246;50.826;4.712;2023-05-16T15:02:04;4.07;;;1.33;;
12363;SDS011;6246;50.826;4.712;2023-05-16T15:04:31;3.70;;;1.50;;
12363;SDS011;6246;50.826;4.712;2023-05-16T15:06:57;10.20;;;1.80;;
12363;SDS011;6246;50.826;4.712;2023-05-16T15:09:23;6.83;;;1.83;;
12363;SDS011;6246;50.826;4.712;2023-05-16T15:11:49;2.60;;;1.13;;
12363;SDS011;6246;50.826;4.712;2023-05-16T15:14:15;2.20;;;1.00;;
12363;SDS011;6246;50.826;4.712;2023-05-16T15:16:41;2.93;;;1.10;;
12363;SDS011;6246;50.826;4.712;2023-05-16T15:19:07;2.53;;;1.07;;
12363;SDS011;6246;50.826;4.712;2023-05-16T15:21:33;1.47;;;1.30;;